Time;durP1;ratioP1;P1;durP2;ratioP2;P2;SDS_P1;SDS_P2;PMS_P1;PMS_P2;Temp;Humidity;BMP_temperature;BMP_pressure;BME280_temperature;BME280_humidity;BME280_pressure;Samples;Min_cycle;Max_cycle;Signal;HPM_P1;HPM_P2
2023/04/03 00:00:40;;;;;;;;;29.50;27.25;;;;;;;;5072140;27;45543;-56
2023/04/03 00:03:05;;;;;;;;;32.75;30.75;;;;;;;;5073290;27;45695;-54
2023/04/03 00:05:31;;;;;;;;;29.25;28.25;;;;;;;;5074458;28;45453;-56
2023/04/03 00:07:56;;;;;;;;;30.75;27.25;;;;;;;;5074566;27;45674;-55
2023/04/03 00:10:21;;;;;;;;;30.50;28.75;;;;;;;;5073828;27;45535;-56
2023/04/03 00:12:46;;;;;;;;;28.50;28.50;;;;;;;;5074193;27;45513;-54
2023/04/03 00:15:12;;;;;;;;;34.00;31.00;;;;;;;;5073467;27;45409;-55
2023/04/03 00:17:38;;;;;;;;;28.00;27.50;;;;;;;;5074176;27;45425;-55
2023/04/03 00:20:03;;;;;;;;;33.50;29.50;;;;;;;;5073957;28;45655;-54
2023/04/03 00:22:30;;;;;;;;;30.75;28.75;;;;;;;;5065981;27;45405;-56
2023/04/03 00:24:55;;;;;;;;;27.75;25.75;;;;;;;;5061996;27;45429;-50
2023/04/03 00:27:21;;;;;;;;;30.25;27.75;;;;;;;;5073260;27;45489;-54
2023/04/03 00:29:46;;;;;;;;;31.50;28.75;;;;;;;;5067909;28;45510;-55
2023/04/03 00:32:11;;;;;;;;;31.50;28.75;;;;;;;;5065595;27;45498;-56
2023/04/03 00:34:36;;;;;;;;;29.50;29.00;;;;;;;;5073063;27;45464;-55
2023/04/03 00:37:02;;;;;;;;;31.75;31.50;;;;;;;;5072899;27;45549;-53
2023/04/03 00:39:27;;;;;;;;;30.00;28.75;;;;;;;;5073664;27;45584;-55
2023/04/03 00:41:52;;;;;;;;;30.50;28.75;;;;;;;;5070327;27;46352;-56
2023/04/03 00:44:21;;;;;;;;;29.00;27.50;;;;;;;;5073213;27;45540;-54
2023/04/03 00:46:46;;;;;;;;;31.75;27.50;;;;;;;;5073784;27;45591;-55
2023/04/03 00:49:11;;;;;;;;;26.75;26.00;;;;;;;;5069537;27;45496;-55
2023/04/03 00:51:36;;;;;;;;;26.75;24.75;;;;;;;;5072885;28;45917;-55
2023/04/03 00:54:04;;;;;;;;;25.00;25.00;;;;;;;;5073159;28;45528;-52
2023/04/03 00:56:30;;;;;;;;;29.75;27.75;;;;;;;;5072475;27;45497;-53
2023/04/03 00:58:59;;;;;;;;;29.25;29.25;;;;;;;;5072744;27;45542;-54
2023/04/03 01:01:25;;;;;;;;;32.25;30.50;;;;;;;;5072005;28;45627;-54
2023/04/03 01:03:51;;;;;;;;;34.00;30.50;;;;;;;;5065871;27;45403;-54
2023/04/03 01:06:18;;;;;;;;;29.75;29.75;;;;;;;;5072618;28;45418;-53
2023/04/03 01:08:44;;;;;;;;;27.75;26.25;;;;;;;;5071583;28;45583;-56
2023/04/03 01:11:09;;;;;;;;;33.75;31.50;;;;;;;;5073059;27;45797;-55
2023/04/03 01:13:35;;;;;;;;;28.25;27.50;;;;;;;;5066084;27;45423;-54
2023/04/03 01:16:00;;;;;;;;;27.25;26.00;;;;;;;;5070444;27;45488;-53
2023/04/03 01:18:26;;;;;;;;;30.75;28.00;;;;;;;;5073686;28;45521;-56
2023/04/03 01:21:04;;;;;;;;;30.75;29.75;;;;;;;;5072019;28;45485;-54
2023/04/03 01:23:36;;;;;;;;;25.00;24.75;;;;;;;;5072656;28;45989;-52
2023/04/03 01:26:02;;;;;;;;;28.00;27.75;;;;;;;;5070324;27;45389;-55
2023/04/03 01:28:34;;;;;;;;;27.75;26.75;;;;;;;;5068690;27;45643;-55
2023/04/03 01:31:00;;;;;;;;;25.75;25.75;;;;;;;;5072745;27;45960;-56
2023/04/03 01:33:25;;;;;;;;;25.75;25.75;;;;;;;;5073217;27;45595;-55
2023/04/03 01:35:50;;;;;;;;;23.00;23.00;;;;;;;;5076518;27;45582;-54
2023/04/03 01:38:15;;;;;;;;;29.50;28.00;;;;;;;;5075808;27;45594;-55
2023/04/03 01:40:41;;;;;;;;;28.00;27.00;;;;;;;;5076547;27;45479;-52
2023/04/03 01:43:06;;;;;;;;;32.00;28.75;;;;;;;;5075971;27;45669;-56
2023/04/03 01:45:31;;;;;;;;;25.75;25.75;;;;;;;;5076522;27;45462;-55
2023/04/03 01:47:56;;;;;;;;;31.00;29.75;;;;;;;;5076427;27;45468;-52
2023/04/03 01:50:22;;;;;;;;;27.50;25.25;;;;;;;;5074520;27;47079;-53
2023/04/03 01:52:47;;;;;;;;;28.75;26.75;;;;;;;;5076513;27;45469;-54
2023/04/03 01:55:12;;;;;;;;;30.75;26.50;;;;;;;;5075489;28;45556;-56
2023/04/03 01:57:37;;;;;;;;;28.50;25.50;;;;;;;;5076228;27;45550;-55
2023/04/03 02:00:03;;;;;;;;;30.00;26.25;;;;;;;;5076153;28;45896;-54
2023/04/03 02:02:28;;;;;;;;;29.25;27.25;;;;;;;;5076205;27;45479;-56
2023/04/03 02:04:54;;;;;;;;;28.25;26.75;;;;;;;;5076540;27;45511;-52
2023/04/03 02:07:19;;;;;;;;;28.25;27.50;;;;;;;;5077444;27;45488;-53
2023/04/03 02:09:45;;;;;;;;;33.00;31.25;;;;;;;;5075893;27;46405;-52
2023/04/03 02:12:10;;;;;;;;;29.50;27.50;;;;;;;;5075640;27;45467;-51
2023/04/03 02:14:35;;;;;;;;;35.00;28.50;;;;;;;;5076348;27;46310;-52
2023/04/03 02:17:04;;;;;;;;;30.00;29.00;;;;;;;;5076359;27;45667;-53
2023/04/03 02:19:30;;;;;;;;;28.25;27.00;;;;;;;;5076076;28;45599;-55
2023/04/03 02:21:55;;;;;;;;;22.75;22.75;;;;;;;;5075951;27;45419;-56
2023/04/03 02:24:20;;;;;;;;;28.75;27.50;;;;;;;;5062674;28;45481;-54
2023/04/03 02:26:45;;;;;;;;;29.25;26.75;;;;;;;;5076152;27;45602;-54
2023/04/03 02:29:10;;;;;;;;;29.25;29.25;;;;;;;;5075156;27;46110;-55
2023/04/03 02:31:36;;;;;;;;;30.25;29.00;;;;;;;;5075421;27;45524;-54
2023/04/03 02:34:01;;;;;;;;;22.50;20.25;;;;;;;;5075712;27;45417;-58
2023/04/03 02:36:26;;;;;;;;;29.75;28.50;;;;;;;;5075344;27;45677;-56
2023/04/03 02:38:51;;;;;;;;;40.75;36.25;;;;;;;;5075346;27;45413;-56
2023/04/03 02:41:17;;;;;;;;;24.25;22.75;;;;;;;;5075091;27;45656;-54
2023/04/03 02:43:42;;;;;;;;;30.75;27.25;;;;;;;;5075193;27;45452;-55
2023/04/03 02:46:07;;;;;;;;;30.50;27.75;;;;;;;;5074524;27;45533;-54
2023/04/03 02:48:32;;;;;;;;;24.75;24.75;;;;;;;;5074747;27;45516;-56
2023/04/03 02:50:58;;;;;;;;;22.25;21.00;;;;;;;;5075414;27;45468;-55
2023/04/03 02:53:23;;;;;;;;;26.00;21.00;;;;;;;;5075497;27;45545;-53
2023/04/03 02:55:48;;;;;;;;;24.00;22.75;;;;;;;;5075718;27;45569;-54
2023/04/03 02:58:14;;;;;;;;;28.50;26.25;;;;;;;;5075194;27;45572;-52
2023/04/03 03:00:39;;;;;;;;;28.50;28.25;;;;;;;;5075294;27;45453;-55
2023/04/03 03:03:04;;;;;;;;;25.00;22.50;;;;;;;;5075504;27;45514;-54
2023/04/03 03:05:30;;;;;;;;;27.25;25.00;;;;;;;;5074283;27;45579;-54
2023/04/03 03:07:55;;;;;;;;;27.00;25.25;;;;;;;;5075118;27;45921;-55
2023/04/03 03:10:21;;;;;;;;;27.25;25.50;;;;;;;;5075224;27;45536;-55
2023/04/03 03:12:46;;;;;;;;;25.50;23.75;;;;;;;;5075552;27;45502;-53
2023/04/03 03:15:11;;;;;;;;;22.00;22.00;;;;;;;;5075093;27;45540;-55
2023/04/03 03:17:37;;;;;;;;;24.75;20.50;;;;;;;;5074888;27;45853;-55
2023/04/03 03:20:03;;;;;;;;;21.00;19.50;;;;;;;;5075137;27;45463;-53
2023/04/03 03:22:28;;;;;;;;;25.75;25.00;;;;;;;;5072307;27;45497;-52
2023/04/03 03:24:54;;;;;;;;;24.00;22.25;;;;;;;;5074954;27;45413;-54
2023/04/03 03:27:19;;;;;;;;;21.75;17.75;;;;;;;;5074660;27;45531;-54
2023/04/03 03:29:45;;;;;;;;;24.00;23.25;;;;;;;;5074955;27;45575;-56
2023/04/03 03:32:10;;;;;;;;;23.50;22.50;;;;;;;;5074841;27;45476;-51
2023/04/03 03:34:35;;;;;;;;;21.50;21.50;;;;;;;;5074765;27;45561;-52
2023/04/03 03:37:00;;;;;;;;;21.25;20.00;;;;;;;;5074407;27;46150;-56
2023/04/03 03:39:25;;;;;;;;;23.75;20.50;;;;;;;;5073229;27;45469;-54
2023/04/03 03:41:53;;;;;;;;;21.00;21.00;;;;;;;;5073799;27;45798;-55
2023/04/03 03:44:18;;;;;;;;;21.00;20.00;;;;;;;;5064287;28;45620;-56
2023/04/03 03:46:43;;;;;;;;;19.00;19.00;;;;;;;;5073078;27;45424;-54
2023/04/03 03:49:08;;;;;;;;;22.25;21.50;;;;;;;;5067495;27;45468;-56
2023/04/03 03:51:34;;;;;;;;;23.00;22.25;;;;;;;;5074474;27;45456;-54
2023/04/03 03:53:59;;;;;;;;;22.50;22.50;;;;;;;;5065947;27;45487;-56
2023/04/03 03:56:25;;;;;;;;;21.25;17.75;;;;;;;;5073453;27;45994;-54
2023/04/03 03:58:50;;;;;;;;;23.00;21.00;;;;;;;;5074341;27;46032;-56
2023/04/03 04:01:17;;;;;;;;;25.50;23.00;;;;;;;;5074741;28;45500;-54
2023/04/03 04:03:42;;;;;;;;;17.75;17.75;;;;;;;;5074526;28;45469;-53
2023/04/03 04:06:07;;;;;;;;;17.50;15.50;;;;;;;;5074014;27;45972;-55
2023/04/03 04:08:32;;;;;;;;;19.50;17.00;;;;;;;;5074354;27;45496;-55
2023/04/03 04:10:58;;;;;;;;;22.75;21.50;;;;;;;;5074339;27;45450;-52
2023/04/03 04:13:23;;;;;;;;;24.75;19.50;;;;;;;;5073748;27;45627;-52
2023/04/03 04:15:48;;;;;;;;;23.50;19.25;;;;;;;;5073620;27;45572;-55
2023/04/03 04:18:13;;;;;;;;;18.00;16.50;;;;;;;;5074273;28;45387;-54
2023/04/03 04:20:39;;;;;;;;;20.75;18.50;;;;;;;;5074163;27;45491;-55
2023/04/03 04:23:04;;;;;;;;;18.75;17.75;;;;;;;;5067709;27;45678;-55
2023/04/03 04:25:29;;;;;;;;;21.00;17.00;;;;;;;;5073941;27;46039;-55
2023/04/03 04:27:55;;;;;;;;;21.75;19.50;;;;;;;;5074213;27;45520;-55
2023/04/03 04:30:20;;;;;;;;;21.75;20.50;;;;;;;;5073245;27;45566;-54
2023/04/03 04:32:45;;;;;;;;;21.25;17.25;;;;;;;;5074156;27;45549;-54
2023/04/03 04:35:11;;;;;;;;;20.25;20.25;;;;;;;;5073850;27;45573;-55
2023/04/03 04:37:36;;;;;;;;;15.50;15.50;;;;;;;;5073698;27;45485;-53
2023/04/03 04:40:02;;;;;;;;;19.25;19.25;;;;;;;;5073918;27;45466;-55
2023/04/03 04:42:27;;;;;;;;;20.50;20.50;;;;;;;;5073337;27;45500;-54
2023/04/03 04:44:52;;;;;;;;;19.50;19.50;;;;;;;;5073513;27;45555;-55
2023/04/03 04:47:17;;;;;;;;;24.75;19.50;;;;;;;;5072543;28;45722;-54
2023/04/03 04:49:43;;;;;;;;;23.00;20.75;;;;;;;;5073488;27;45457;-56
2023/04/03 04:52:08;;;;;;;;;19.00;18.50;;;;;;;;5073495;27;45359;-56
2023/04/03 04:54:33;;;;;;;;;21.25;19.25;;;;;;;;5073703;27;46065;-55
2023/04/03 04:56:58;;;;;;;;;20.00;18.75;;;;;;;;5073538;27;45405;-52
2023/04/03 04:59:24;;;;;;;;;20.75;20.75;;;;;;;;5073882;28;45511;-51
2023/04/03 05:01:49;;;;;;;;;22.00;20.00;;;;;;;;5073731;28;45643;-52
2023/04/03 05:04:14;;;;;;;;;20.00;18.75;;;;;;;;5072642;27;46059;-54
2023/04/03 05:06:40;;;;;;;;;21.75;19.75;;;;;;;;5073614;27;45455;-53
2023/04/03 05:09:05;;;;;;;;;19.50;19.50;;;;;;;;5076213;27;45767;-55
2023/04/03 05:11:31;;;;;;;;;19.75;19.75;;;;;;;;5077255;27;45488;-55
2023/04/03 05:13:56;;;;;;;;;23.50;19.50;;;;;;;;5076636;27;45480;-55
2023/04/03 05:16:21;;;;;;;;;18.25;17.25;;;;;;;;5074793;27;45546;-52
2023/04/03 05:18:46;;;;;;;;;20.75;20.50;;;;;;;;5076574;27;45577;-54
2023/04/03 05:21:11;;;;;;;;;21.50;21.50;;;;;;;;5076157;27;45503;-54
2023/04/03 05:23:37;;;;;;;;;22.50;19.25;;;;;;;;5076645;27;46606;-54
2023/04/03 05:26:02;;;;;;;;;20.25;18.25;;;;;;;;5076346;27;45632;-53
2023/04/03 05:28:27;;;;;;;;;21.50;19.50;;;;;;;;5076427;28;45446;-54
2023/04/03 05:30:56;;;;;;;;;22.25;22.25;;;;;;;;5078982;27;45508;-53
2023/04/03 05:33:21;;;;;;;;;18.00;17.25;;;;;;;;5086473;27;45642;-55
2023/04/03 05:35:47;;;;;;;;;18.00;16.25;;;;;;;;5070822;27;45460;-52
2023/04/03 05:38:12;;;;;;;;;20.50;19.00;;;;;;;;5076179;27;45502;-51
2023/04/03 05:40:37;;;;;;;;;17.75;17.75;;;;;;;;5076764;27;45465;-55
2023/04/03 05:43:03;;;;;;;;;23.00;20.50;;;;;;;;5076339;27;45531;-53
2023/04/03 05:45:28;;;;;;;;;19.00;19.00;;;;;;;;5075862;27;45518;-57
2023/04/03 05:47:53;;;;;;;;;22.75;18.75;;;;;;;;5068133;27;45505;-57
2023/04/03 05:50:18;;;;;;;;;23.00;21.25;;;;;;;;5076794;27;45596;-56
2023/04/03 05:52:45;;;;;;;;;18.00;17.75;;;;;;;;5075739;27;46126;-55
2023/04/03 05:55:11;;;;;;;;;18.00;16.50;;;;;;;;5075766;27;45436;-55
2023/04/03 05:57:36;;;;;;;;;24.00;24.00;;;;;;;;5076583;28;45527;-56
2023/04/03 06:00:02;;;;;;;;;21.75;20.25;;;;;;;;5076283;27;45540;-57
2023/04/03 06:02:28;;;;;;;;;22.00;19.00;;;;;;;;5075170;27;47450;-54
2023/04/03 06:04:53;;;;;;;;;25.50;22.25;;;;;;;;5075816;27;45437;-57
2023/04/03 06:07:21;;;;;;;;;24.50;20.50;;;;;;;;5073305;27;45569;-57
2023/04/03 06:09:46;;;;;;;;;25.25;24.00;;;;;;;;5072034;27;45549;-54
2023/04/03 06:12:12;;;;;;;;;24.50;21.25;;;;;;;;5074695;27;45532;-55
2023/04/03 06:14:37;;;;;;;;;20.50;20.50;;;;;;;;5067132;27;45500;-55
2023/04/03 06:17:02;;;;;;;;;24.00;24.00;;;;;;;;5076173;27;45528;-56
2023/04/03 06:19:28;;;;;;;;;22.50;17.25;;;;;;;;5074786;27;45591;-55
2023/04/03 06:21:53;;;;;;;;;21.25;20.00;;;;;;;;5075447;27;45967;-56
2023/04/03 06:24:21;;;;;;;;;25.00;22.75;;;;;;;;5071823;27;45513;-55
2023/04/03 06:26:46;;;;;;;;;21.50;18.50;;;;;;;;5075212;27;45487;-54
2023/04/03 06:29:11;;;;;;;;;21.75;19.75;;;;;;;;5073121;27;45461;-50
2023/04/03 06:31:37;;;;;;;;;24.75;22.25;;;;;;;;5074227;27;45993;-53
2023/04/03 06:34:03;;;;;;;;;22.25;22.00;;;;;;;;5074383;27;45504;-57
2023/04/03 06:36:28;;;;;;;;;23.50;22.25;;;;;;;;5075218;27;45563;-58
2023/04/03 06:38:53;;;;;;;;;23.00;23.00;;;;;;;;5075159;27;45544;-55
2023/04/03 06:41:19;;;;;;;;;22.00;19.50;;;;;;;;5074456;27;46178;-54
2023/04/03 06:43:44;;;;;;;;;19.00;18.25;;;;;;;;5074980;27;45364;-53
2023/04/03 06:46:13;;;;;;;;;25.75;22.75;;;;;;;;5074744;27;45566;-54
2023/04/03 06:48:38;;;;;;;;;17.50;17.50;;;;;;;;5075221;27;45428;-54
2023/04/03 06:51:04;;;;;;;;;20.25;20.25;;;;;;;;5073160;28;45616;-56
2023/04/03 06:53:29;;;;;;;;;28.00;24.50;;;;;;;;5074379;27;45511;-56
2023/04/03 06:55:55;;;;;;;;;25.00;22.75;;;;;;;;5074887;27;45451;-55
2023/04/03 06:58:21;;;;;;;;;24.00;21.50;;;;;;;;5074784;27;45609;-54
2023/04/03 07:00:47;;;;;;;;;23.50;20.75;;;;;;;;5074645;27;45961;-55
2023/04/03 07:03:12;;;;;;;;;22.50;19.25;;;;;;;;5074545;27;45481;-55
2023/04/03 07:05:37;;;;;;;;;19.25;19.00;;;;;;;;5074667;27;45411;-55
2023/04/03 07:08:02;;;;;;;;;21.00;20.75;;;;;;;;5074799;27;45493;-55
2023/04/03 07:10:27;;;;;;;;;19.25;19.25;;;;;;;;5074268;27;46123;-57
2023/04/03 07:12:53;;;;;;;;;17.75;17.75;;;;;;;;5074520;27;45527;-56
2023/04/03 07:15:18;;;;;;;;;52.75;42.75;;;;;;;;5074667;27;45496;-57
2023/04/03 07:17:43;;;;;;;;;32.00;31.00;;;;;;;;5074614;27;45462;-57
2023/04/03 07:20:09;;;;;;;;;21.00;21.00;;;;;;;;5074411;27;45533;-54
2023/04/03 07:22:34;;;;;;;;;19.00;18.50;;;;;;;;5074330;27;45532;-54
2023/04/03 07:24:59;;;;;;;;;18.50;17.50;;;;;;;;5074519;27;45508;-54
2023/04/03 07:27:25;;;;;;;;;17.00;15.25;;;;;;;;5074065;27;45402;-55
2023/04/03 07:29:50;;;;;;;;;18.00;18.00;;;;;;;;5073943;27;45454;-54
2023/04/03 07:32:16;;;;;;;;;19.75;19.75;;;;;;;;5073728;27;45469;-54
2023/04/03 07:34:41;;;;;;;;;18.25;17.25;;;;;;;;5074135;27;45527;-54
2023/04/03 07:37:06;;;;;;;;;17.75;17.75;;;;;;;;5074345;27;45457;-56
2023/04/03 07:39:32;;;;;;;;;19.25;18.50;;;;;;;;5073768;27;45420;-54
2023/04/03 07:41:57;;;;;;;;;16.75;15.75;;;;;;;;5072560;27;45533;-54
2023/04/03 07:44:23;;;;;;;;;20.50;17.25;;;;;;;;5074048;27;45513;-54
2023/04/03 07:46:48;;;;;;;;;23.25;22.00;;;;;;;;5073901;27;45585;-55
2023/04/03 07:49:13;;;;;;;;;18.50;18.00;;;;;;;;5073808;27;46322;-57
2023/04/03 07:51:39;;;;;;;;;14.75;12.75;;;;;;;;5073602;27;45425;-54
2023/04/03 07:54:04;;;;;;;;;19.50;17.25;;;;;;;;5073769;27;45529;-55
2023/04/03 07:56:30;;;;;;;;;19.00;17.00;;;;;;;;5073929;27;45578;-55
2023/04/03 07:58:55;;;;;;;;;19.25;17.25;;;;;;;;5073613;27;45502;-56
2023/04/03 08:01:20;;;;;;;;;19.50;18.00;;;;;;;;5073816;27;45593;-54
2023/04/03 08:03:45;;;;;;;;;16.50;15.00;;;;;;;;5073567;27;45497;-55
2023/04/03 08:06:11;;;;;;;;;17.50;17.50;;;;;;;;5073919;27;45548;-57
2023/04/03 08:08:36;;;;;;;;;18.25;16.75;;;;;;;;5073223;27;46186;-54
2023/04/03 08:11:02;;;;;;;;;15.50;14.50;;;;;;;;5073518;27;45590;-56
2023/04/03 08:13:28;;;;;;;;;16.00;15.25;;;;;;;;5073729;27;45635;-54
2023/04/03 08:15:53;;;;;;;;;16.00;15.25;;;;;;;;5073284;27;45493;-55
2023/04/03 08:18:21;;;;;;;;;16.00;15.50;;;;;;;;5073398;27;45653;-56
2023/04/03 08:20:46;;;;;;;;;14.75;14.75;;;;;;;;5073359;27;45555;-54
2023/04/03 08:23:11;;;;;;;;;17.25;17.25;;;;;;;;5073359;27;46290;-55
2023/04/03 08:25:38;;;;;;;;;13.50;13.50;;;;;;;;5073331;27;45473;-55
2023/04/03 08:28:03;;;;;;;;;15.00;12.25;;;;;;;;5073238;27;46309;-55
2023/04/03 08:30:29;;;;;;;;;16.50;14.25;;;;;;;;5072758;27;45477;-53
2023/04/03 08:32:54;;;;;;;;;10.00;10.00;;;;;;;;5073295;27;45414;-53
2023/04/03 08:35:20;;;;;;;;;11.00;10.00;;;;;;;;5073594;27;45401;-56
2023/04/03 08:37:45;;;;;;;;;10.00;8.25;;;;;;;;5073198;27;46482;-55
2023/04/03 08:40:13;;;;;;;;;13.25;11.75;;;;;;;;5073350;27;45404;-55
2023/04/03 08:42:44;;;;;;;;;10.25;8.50;;;;;;;;5072184;28;45418;-53
2023/04/03 08:45:12;;;;;;;;;9.50;8.50;;;;;;;;5073141;27;45508;-56
2023/04/03 08:47:38;;;;;;;;;11.50;9.25;;;;;;;;5072884;27;45448;-51
2023/04/03 08:50:11;;;;;;;;;9.00;9.00;;;;;;;;5072838;27;45500;-55
2023/04/03 08:52:43;;;;;;;;;9.00;9.00;;;;;;;;5072899;27;45492;-55
2023/04/03 08:55:25;;;;;;;;;9.50;9.50;;;;;;;;5072602;28;45578;-55
2023/04/03 08:57:58;;;;;;;;;11.75;11.75;;;;;;;;5071446;27;47525;-51
2023/04/03 09:00:25;;;;;;;;;8.25;8.25;;;;;;;;5072822;27;45496;-52
2023/04/03 09:02:55;;;;;;;;;9.75;9.75;;;;;;;;5072973;28;45516;-57
2023/04/03 09:05:50;;;;;;;;;7.00;7.00;;;;;;;;5072710;27;45647;-52
2023/04/03 09:08:18;;;;;;;;;7.50;7.50;;;;;;;;5059009;27;45575;-56
2023/04/03 09:10:43;;;;;;;;;9.50;7.75;;;;;;;;5072559;28;45504;-55
2023/04/03 09:13:27;;;;;;;;;7.00;7.00;;;;;;;;5072591;27;45513;-56
2023/04/03 09:15:54;;;;;;;;;11.25;10.50;;;;;;;;5072663;27;45486;-55
2023/04/03 09:18:22;;;;;;;;;11.00;9.00;;;;;;;;5072485;27;45505;-56
2023/04/03 09:20:53;;;;;;;;;9.50;9.50;;;;;;;;5072510;27;45480;-55
2023/04/03 09:23:44;;;;;;;;;8.50;8.50;;;;;;;;5072623;27;45561;-56
2023/04/03 09:26:16;;;;;;;;;8.50;8.50;;;;;;;;5069319;27;45595;-55
2023/04/03 09:28:42;;;;;;;;;9.00;9.00;;;;;;;;5070996;27;47394;-56
2023/04/03 09:31:34;;;;;;;;;11.75;9.50;;;;;;;;5071975;27;45600;-55
2023/04/03 09:34:05;;;;;;;;;7.75;7.00;;;;;;;;5069489;27;45531;-54
2023/04/03 09:36:51;;;;;;;;;8.75;8.50;;;;;;;;5072330;28;45532;-57
2023/04/03 09:39:24;;;;;;;;;8.50;7.50;;;;;;;;5070636;27;47607;-57
2023/04/03 09:41:56;;;;;;;;;10.00;8.00;;;;;;;;5072254;27;45414;-55
2023/04/03 09:44:23;;;;;;;;;7.00;7.00;;;;;;;;5071860;27;45449;-54
2023/04/03 09:46:48;;;;;;;;;7.50;7.50;;;;;;;;5072272;28;45738;-51
2023/04/03 09:49:13;;;;;;;;;7.75;7.50;;;;;;;;5072419;27;45410;-55
2023/04/03 09:51:40;;;;;;;;;8.75;7.00;;;;;;;;5071806;27;45493;-53
2023/04/03 09:54:39;;;;;;;;;10.75;10.75;;;;;;;;5073489;27;45463;-56
2023/04/03 09:57:14;;;;;;;;;7.00;7.00;;;;;;;;5041549;27;45571;-55
2023/04/03 09:59:47;;;;;;;;;10.50;8.00;;;;;;;;5075609;27;45976;-57
2023/04/03 10:02:15;;;;;;;;;7.75;7.75;;;;;;;;5075659;27;45404;-52
2023/04/03 10:04:41;;;;;;;;;8.75;7.25;;;;;;;;5075586;27;45511;-54
2023/04/03 10:07:24;;;;;;;;;7.00;7.00;;;;;;;;5075239;27;45402;-56
2023/04/03 10:09:55;;;;;;;;;8.50;8.00;;;;;;;;5075477;28;45980;-57
2023/04/03 10:12:20;;;;;;;;;9.25;9.00;;;;;;;;5073806;27;45505;-56
2023/04/03 10:15:00;;;;;;;;;8.25;7.25;;;;;;;;5075423;27;45466;-54
2023/04/03 10:17:36;;;;;;;;;12.50;10.00;;;;;;;;5075171;27;45455;-53
2023/04/03 10:20:13;;;;;;;;;9.75;9.75;;;;;;;;5075172;27;45488;-57
2023/04/03 10:22:55;;;;;;;;;10.25;10.25;;;;;;;;5074699;27;45533;-54
2023/04/03 10:25:20;;;;;;;;;8.00;8.00;;;;;;;;5075407;27;45462;-55
2023/04/03 10:27:59;;;;;;;;;10.67;9.00;;;;;;;;5074908;27;45582;-53
2023/04/03 10:30:32;;;;;;;;;9.50;9.00;;;;;;;;5074797;27;46179;-54
2023/04/03 10:33:10;;;;;;;;;7.00;7.00;;;;;;;;5075016;27;45545;-56
2023/04/03 10:35:50;;;;;;;;;11.00;10.00;;;;;;;;5074959;27;45590;-56
2023/04/03 10:38:18;;;;;;;;;8.00;8.00;;;;;;;;5061646;27;45560;-53
2023/04/03 10:41:03;;;;;;;;;8.25;7.00;;;;;;;;5074540;27;45549;-53
2023/04/03 10:43:37;;;;;;;;;9.00;9.00;;;;;;;;5060826;28;45387;-56
2023/04/03 10:46:06;;;;;;;;;7.33;6.33;;;;;;;;5074810;27;45445;-58
2023/04/03 10:48:40;;;;;;;;;10.50;9.50;;;;;;;;5074808;27;45577;-56
2023/04/03 10:51:16;;;;;;;;;8.50;8.50;;;;;;;;5074319;27;46187;-51
2023/04/03 10:53:48;;;;;;;;;7.50;7.50;;;;;;;;5074182;27;45456;-54
2023/04/03 10:56:22;;;;;;;;;12.50;12.50;;;;;;;;5073040;27;45398;-55
2023/04/03 10:58:50;;;;;;;;;9.00;8.00;;;;;;;;5074436;27;45631;-54
2023/04/03 11:01:21;;;;;;;;;7.67;7.67;;;;;;;;5074233;27;45639;-52
2023/04/03 11:03:52;;;;;;;;;10.00;10.00;;;;;;;;5073964;27;45446;-57
2023/04/03 11:06:19;;;;;;;;;7.33;7.33;;;;;;;;5073756;28;46124;-55
2023/04/03 11:08:57;;;;;;;;;9.75;8.25;;;;;;;;5074111;27;45561;-54
2023/04/03 11:11:35;;;;;;;;;7.75;7.75;;;;;;;;5073998;27;45530;-55
2023/04/03 11:14:05;;;;;;;;;6.00;6.00;;;;;;;;5073014;27;45658;-52
2023/04/03 11:16:33;;;;;;;;;12.75;11.00;;;;;;;;5068910;27;45566;-54
2023/04/03 11:19:12;;;;;;;;;46.50;39.75;;;;;;;;5072764;27;45523;-54
2023/04/03 11:21:38;;;;;;;;;52.50;43.50;;;;;;;;5063423;27;45418;-55
2023/04/03 11:24:05;;;;;;;;;33.50;32.00;;;;;;;;5062747;27;45545;-53
2023/04/03 11:26:35;;;;;;;;;29.25;26.25;;;;;;;;5073763;27;45504;-57
2023/04/03 11:29:06;;;;;;;;;7.00;6.00;;;;;;;;5073622;27;45415;-55
2023/04/03 11:31:47;;;;;;;;;7.00;7.00;;;;;;;;5074918;27;46274;-56
2023/04/03 11:34:21;;;;;;;;;8.00;8.00;;;;;;;;5067279;27;45504;-55
2023/04/03 11:36:48;;;;;;;;;9.33;9.33;;;;;;;;5075456;28;45780;-56
2023/04/03 11:39:25;;;;;;;;;8.00;8.00;;;;;;;;5075371;28;45566;-52
2023/04/03 11:41:50;;;;;;;;;7.33;7.33;;;;;;;;5075299;27;46082;-54
2023/04/03 11:44:24;;;;;;;;;8.00;8.00;;;;;;;;5075182;27;45824;-54
2023/04/03 11:46:55;;;;;;;;;9.00;9.00;;;;;;;;5075694;27;45524;-52
2023/04/03 11:49:39;;;;;;;;;7.00;7.00;;;;;;;;5074947;27;45555;-55
2023/04/03 11:52:09;;;;;;;;;8.00;7.67;;;;;;;;5061734;28;45379;-54
2023/04/03 11:54:36;;;;;;;;;7.33;7.33;;;;;;;;5074329;27;45520;-56
2023/04/03 11:57:21;;;;;;;;;8.00;6.50;;;;;;;;5074662;27;45499;-53
2023/04/03 11:59:46;;;;;;;;;8.33;8.33;;;;;;;;5074581;27;45529;-54
2023/04/03 12:02:30;;;;;;;;;8.00;8.00;;;;;;;;5074295;27;45952;-55
2023/04/03 12:05:14;;;;;;;;;6.00;6.00;;;;;;;;5074534;27;45505;-55
2023/04/03 12:07:39;;;;;;;;;5.67;5.67;;;;;;;;5061433;28;45461;-51
2023/04/03 12:10:16;;;;;;;;;5.00;5.00;;;;;;;;5074720;27;45484;-55
2023/04/03 12:12:41;;;;;;;;;5.33;5.00;;;;;;;;5074455;27;46080;-56
2023/04/03 12:15:42;;;;;;;;;13.33;13.33;;;;;;;;5074248;27;45517;-54
2023/04/03 12:18:26;;;;;;;;;7.00;6.00;;;;;;;;5063730;28;45490;-53
2023/04/03 12:20:51;;;;;;;;;5.67;5.67;;;;;;;;5074601;27;45418;-56
2023/04/03 12:23:43;;;;;;;;;6.67;6.00;;;;;;;;5074408;27;46578;-55
2023/04/03 12:26:15;;;;;;;;;6.67;6.67;;;;;;;;5050367;27;45570;-56
2023/04/03 12:28:40;;;;;;;;;6.00;6.00;;;;;;;;5074341;28;45547;-55
2023/04/03 12:31:08;;;;;;;;;6.00;6.00;;;;;;;;5073790;27;45557;-56
2023/04/03 12:33:57;;;;;;;;;6.33;6.33;;;;;;;;5074291;27;46323;-56
2023/04/03 12:36:38;;;;;;;;;4.00;4.00;;;;;;;;5060829;28;45471;-54
2023/04/03 12:39:03;;;;;;;;;4.67;4.67;;;;;;;;5072958;27;45498;-53
2023/04/03 12:41:35;;;;;;;;;4.33;4.00;;;;;;;;5074083;27;45412;-56
2023/04/03 12:44:19;;;;;;;;;5.00;5.00;;;;;;;;5073983;27;46327;-53
2023/04/03 12:46:49;;;;;;;;;4.33;4.33;;;;;;;;5059200;28;45489;-52
2023/04/03 12:49:31;;;;;;;;;6.00;5.67;;;;;;;;5074002;27;45530;-56
2023/04/03 12:51:56;;;;;;;;;3.67;3.67;;;;;;;;5071395;28;45512;-54
2023/04/03 12:54:21;;;;;;;;;3.67;3.67;;;;;;;;5073810;27;46098;-52
2023/04/03 12:56:47;;;;;;;;;4.00;4.00;;;;;;;;5074164;28;45479;-54
2023/04/03 12:59:14;;;;;;;;;5.00;5.00;;;;;;;;5072680;28;45505;-55
2023/04/03 13:01:40;;;;;;;;;4.33;4.33;;;;;;;;5073919;27;45423;-56
2023/04/03 13:04:05;;;;;;;;;6.00;5.00;;;;;;;;5073362;27;46079;-56
2023/04/03 13:06:35;;;;;;;;;5.00;5.00;;;;;;;;5073601;28;45493;-51
2023/04/03 13:09:00;;;;;;;;;4.00;4.00;;;;;;;;5073820;28;45507;-53
2023/04/03 13:11:37;;;;;;;;;3.67;3.67;;;;;;;;5073740;27;45422;-54
2023/04/03 13:14:05;;;;;;;;;3.33;3.33;;;;;;;;5073596;28;45468;-54
2023/04/03 13:16:31;;;;;;;;;5.00;4.67;;;;;;;;5073534;28;45640;-54
2023/04/03 13:18:56;;;;;;;;;3.67;3.67;;;;;;;;5073748;27;45472;-56
2023/04/03 13:21:24;;;;;;;;;4.67;4.00;;;;;;;;5073523;27;45394;-56
2023/04/03 13:23:52;;;;;;;;;6.00;4.67;;;;;;;;5073483;27;46036;-56
2023/04/03 13:26:18;;;;;;;;;4.00;4.00;;;;;;;;5073377;27;45496;-57
2023/04/03 13:28:45;;;;;;;;;6.00;6.00;;;;;;;;5074091;28;45476;-55
2023/04/03 13:31:13;;;;;;;;;4.33;4.33;;;;;;;;5076752;27;45470;-54
2023/04/03 13:33:42;;;;;;;;;5.00;5.00;;;;;;;;5077194;27;45762;-53
2023/04/03 13:36:17;;;;;;;;;6.00;6.00;;;;;;;;5075670;27;45511;-56
2023/04/03 13:38:43;;;;;;;;;4.33;4.33;;;;;;;;5077420;27;45438;-56
2023/04/03 13:41:27;;;;;;;;;6.00;6.00;;;;;;;;5076853;27;45639;-56
2023/04/03 13:43:52;;;;;;;;;5.00;5.00;;;;;;;;5075376;27;45502;-54
2023/04/03 13:46:17;;;;;;;;;7.67;5.00;;;;;;;;5076721;27;45440;-55
2023/04/03 13:48:44;;;;;;;;;5.00;5.00;;;;;;;;5075713;27;45498;-56
2023/04/03 13:51:14;;;;;;;;;5.67;5.00;;;;;;;;5076707;27;45564;-54
2023/04/03 13:53:47;;;;;;;;;5.00;5.00;;;;;;;;5076505;27;46121;-53
2023/04/03 13:56:32;;;;;;;;;7.00;6.00;;;;;;;;5076487;27;45476;-54
2023/04/03 13:59:02;;;;;;;;;4.33;4.33;;;;;;;;5076614;27;45532;-56
2023/04/03 14:01:33;;;;;;;;;5.33;5.33;;;;;;;;5076737;27;45499;-55
2023/04/03 14:04:00;;;;;;;;;5.67;5.33;;;;;;;;5076333;27;47345;-55
2023/04/03 14:06:26;;;;;;;;;5.67;5.67;;;;;;;;5076306;27;45610;-56
2023/04/03 14:08:51;;;;;;;;;4.67;4.67;;;;;;;;5076441;27;45580;-56
2023/04/03 14:11:22;;;;;;;;;5.00;5.00;;;;;;;;5076533;27;45577;-54
2023/04/03 14:13:47;;;;;;;;;4.00;4.00;;;;;;;;5076143;27;45942;-54
2023/04/03 14:16:17;;;;;;;;;3.00;3.00;;;;;;;;5076505;27;45568;-52
2023/04/03 14:18:46;;;;;;;;;4.67;4.67;;;;;;;;5076753;27;45444;-53
2023/04/03 14:21:13;;;;;;;;;4.33;4.33;;;;;;;;5074769;27;45699;-56
2023/04/03 14:23:39;;;;;;;;;4.67;4.67;;;;;;;;5076062;27;45508;-54
2023/04/03 14:26:08;;;;;;;;;4.33;4.33;;;;;;;;5075984;27;45593;-56
2023/04/03 14:28:33;;;;;;;;;5.67;5.33;;;;;;;;5076384;27;45547;-54
2023/04/03 14:30:59;;;;;;;;;5.00;5.00;;;;;;;;5075795;27;45527;-54